Sct Santiago — V7NF7 — position and weather

sailwx.info

Track history (hours):
 
Tides and Currents Weather Stations Pressure Air Temp Water Temp Dewpoint Dewpoint Depression Visibility Wind Speed Wind Dir Waves Ship Positions

Sct Santiago

Last reported at 2016-Jun-08 04:33 UTC. Time now 2016-Jun-29 23:47 UTC.
Position N 26°56' W 079°45'.
Warning: this ship's position is 21 days out of date.

; draft 19.4 m.

Type: Cargo ship. MMSI: 538002953.

Date/timePositionNaut miles runAvg speedWind from/ knotsBaromVisibWave heightAir tempDewpointWater temp
2016-Jun-08 04:33N 26°56' W 079°45'1716.3
2016-Jun-08 03:30N 26°39' W 079°47'1616.4
2016-Jun-08 02:33N 26°23' W 079°50'1716.7
2016-Jun-08 01:33N 26°07' W 079°52'1716.5
2016-Jun-08 00:34N 25°51' W 079°57'1211.9
2016-Jun-07 23:33N 25°46' W 080°09'0 0.1
2016-Jun-07 22:31N 25°46' W 080°09'0 0.0
2016-Jun-07 21:31N 25°46' W 080°09'0 0.0
2016-Jun-07 20:31N 25°46' W 080°09'0 0.0
2016-Jun-07 19:31N 25°46' W 080°09'0 0.0
2016-Jun-07 18:31N 25°46' W 080°09'0 0.0
2016-Jun-07 17:31N 25°46' W 080°09'0 0.0
2016-Jun-07 16:31N 25°46' W 080°09'0 0.0
2016-Jun-07 15:31N 25°46' W 080°09'0 0.0
2016-Jun-07 14:31N 25°46' W 080°09'0 0.0
2016-Jun-07 13:31N 25°46' W 080°09'0 0.0
2016-Jun-07 12:31N 25°46' W 080°09'0 0.0
2016-Jun-07 11:31N 25°46' W 080°09'2 2.5
2016-Jun-07 10:34N 25°46' W 080°06'6 6.2
2016-Jun-07 09:34N 25°45' W 079°60'6 6.4
2016-Jun-07 08:34N 25°39' W 079°59'4 4.1
2016-Jun-07 07:34N 25°35' W 080°01'4 3.8
2016-Jun-07 06:34N 25°31' W 080°01'4 4.4
2016-Jun-07 05:34N 25°26' W 080°01'10 9.7
2016-Jun-07 04:34N 25°17' W 080°01'  
2016-Jun-03 01:31N 28°43' W 093°40'8313.6
2016-Jun-02 19:22N 29°35' W 094°56'5 5.1
2016-Jun-02 18:22N 29°37' W 095°01'1 0.2
2016-Jun-02 15:26N 29°37' W 095°00'0 0.0
2016-Jun-02 14:29N 29°37' W 095°00'0 0.0
2016-Jun-02 12:29N 29°37' W 095°00'0 0.0
2016-Jun-02 11:17N 29°37' W 095°00'0 0.0
2016-Jun-02 10:17N 29°37' W 095°00'0 0.0
2016-Jun-02 08:20N 29°37' W 095°00'0 0.0
2016-Jun-02 06:29N 29°37' W 095°00'0 0.0
2016-Jun-02 02:31N 29°37' W 095°00'0 0.0
2016-Jun-02 01:28N 29°37' W 095°00'0 0.0
2016-Jun-02 00:31N 29°37' W 095°00'0 0.0
2016-Jun-01 22:25N 29°37' W 095°00'0 0.0
2016-Jun-01 21:31N 29°37' W 095°00'0 0.0
2016-Jun-01 20:16N 29°37' W 095°00'0 0.0
2016-Jun-01 19:31N 29°37' W 095°00'0 0.0
2016-Jun-01 18:25N 29°37' W 095°00'0 0.0
2016-Jun-01 17:26N 29°37' W 095°00'5 5.1
2016-Jun-01 16:29N 29°34' W 094°56'1011.0
2016-Jun-01 15:33N 29°25' W 094°50'9613.7
2016-Jun-01 08:33N 28°30' W 093°20'  
2016-May-29 10:32N 09°54' W 079°56'1919.5
2016-May-29 09:33N 09°35' W 079°56'1313.3
2016-May-29 08:34N 09°22' W 079°53'0 0.4
2016-May-29 07:32N 09°21' W 079°53'0 0.0
2016-May-29 06:33N 09°21' W 079°53'0 0.0
2016-May-29 05:32N 09°21' W 079°53'  
Track history (hours):
 
Tides and Currents Weather Stations Pressure Air Temp Water Temp Dewpoint Dewpoint Depression Visibility Wind Speed Wind Dir Waves Ship Positions

Sct Santiago

Last reported at 2016-Jun-08 04:33 UTC. Time now 2016-Jun-29 23:47 UTC.
Position N 26°56' W 079°45'.
Warning: this ship's position is 21 days out of date.

; draft 19.4 m.

Type: Cargo ship. MMSI: 538002953.

Date/timePositionNaut miles runAvg speedWind from/ knotsBaromVisibWave heightAir tempDewpointWater temp
2016-Jun-08 04:33N 26°56' W 079°45'1716.3
2016-Jun-08 03:30N 26°39' W 079°47'1616.4
2016-Jun-08 02:33N 26°23' W 079°50'1716.7
2016-Jun-08 01:33N 26°07' W 079°52'1716.5
2016-Jun-08 00:34N 25°51' W 079°57'1211.9
2016-Jun-07 23:33N 25°46' W 080°09'0 0.1
2016-Jun-07 22:31N 25°46' W 080°09'0 0.0
2016-Jun-07 21:31N 25°46' W 080°09'0 0.0
2016-Jun-07 20:31N 25°46' W 080°09'0 0.0
2016-Jun-07 19:31N 25°46' W 080°09'0 0.0
2016-Jun-07 18:31N 25°46' W 080°09'0 0.0
2016-Jun-07 17:31N 25°46' W 080°09'0 0.0
2016-Jun-07 16:31N 25°46' W 080°09'0 0.0
2016-Jun-07 15:31N 25°46' W 080°09'0 0.0
2016-Jun-07 14:31N 25°46' W 080°09'0 0.0
2016-Jun-07 13:31N 25°46' W 080°09'0 0.0
2016-Jun-07 12:31N 25°46' W 080°09'0 0.0
2016-Jun-07 11:31N 25°46' W 080°09'2 2.5
2016-Jun-07 10:34N 25°46' W 080°06'6 6.2
2016-Jun-07 09:34N 25°45' W 079°60'6 6.4
2016-Jun-07 08:34N 25°39' W 079°59'4 4.1
2016-Jun-07 07:34N 25°35' W 080°01'4 3.8
2016-Jun-07 06:34N 25°31' W 080°01'4 4.4
2016-Jun-07 05:34N 25°26' W 080°01'10 9.7
2016-Jun-07 04:34N 25°17' W 080°01'  
2016-Jun-03 01:31N 28°43' W 093°40'8313.6
2016-Jun-02 19:22N 29°35' W 094°56'5 5.1
2016-Jun-02 18:22N 29°37' W 095°01'1 0.2
2016-Jun-02 15:26N 29°37' W 095°00'0 0.0
2016-Jun-02 14:29N 29°37' W 095°00'0 0.0
2016-Jun-02 12:29N 29°37' W 095°00'0 0.0
2016-Jun-02 11:17N 29°37' W 095°00'0 0.0
2016-Jun-02 10:17N 29°37' W 095°00'0 0.0
2016-Jun-02 08:20N 29°37' W 095°00'0 0.0
2016-Jun-02 06:29N 29°37' W 095°00'0 0.0
2016-Jun-02 02:31N 29°37' W 095°00'0 0.0
2016-Jun-02 01:28N 29°37' W 095°00'0 0.0
2016-Jun-02 00:31N 29°37' W 095°00'0 0.0
2016-Jun-01 22:25N 29°37' W 095°00'0 0.0
2016-Jun-01 21:31N 29°37' W 095°00'0 0.0
2016-Jun-01 20:16N 29°37' W 095°00'0 0.0
2016-Jun-01 19:31N 29°37' W 095°00'0 0.0
2016-Jun-01 18:25N 29°37' W 095°00'0 0.0
2016-Jun-01 17:26N 29°37' W 095°00'5 5.1
2016-Jun-01 16:29N 29°34' W 094°56'1011.0
2016-Jun-01 15:33N 29°25' W 094°50'9613.7
2016-Jun-01 08:33N 28°30' W 093°20'  
2016-May-29 10:32N 09°54' W 079°56'1919.5
2016-May-29 09:33N 09°35' W 079°56'1313.3
2016-May-29 08:34N 09°22' W 079°53'0 0.4
2016-May-29 07:32N 09°21' W 079°53'0 0.0
2016-May-29 06:33N 09°21' W 079°53'0 0.0
2016-May-29 05:32N 09°21' W 079°53'  

Dump ship's entire track history